createdAt,value
2023-04-15T00:01:05.897Z,3.30
2023-04-15T00:03:08.334Z,3.47
2023-04-15T00:05:10.529Z,3.55
2023-04-15T00:07:12.382Z,3.56
2023-04-15T00:09:13.980Z,3.44
2023-04-15T00:11:15.460Z,3.31
2023-04-15T00:13:17.124Z,3.28
2023-04-15T00:15:19.110Z,3.35
2023-04-15T00:17:20.951Z,3.43
2023-04-15T00:19:24.110Z,3.40
2023-04-15T00:21:26.975Z,3.40
2023-04-15T00:23:28.725Z,3.31
2023-04-15T00:25:30.220Z,3.27
2023-04-15T00:27:31.696Z,3.26
2023-04-15T00:29:33.544Z,3.42
2023-04-15T00:31:35.177Z,3.49
2023-04-15T00:33:36.851Z,3.46
2023-04-15T00:35:39.463Z,3.36
2023-04-15T00:37:41.503Z,3.46
2023-04-15T00:39:43.927Z,3.53
2023-04-15T00:41:46.298Z,3.37
2023-04-15T00:43:47.984Z,3.39
2023-04-15T00:45:53.573Z,3.53
2023-04-15T00:47:55.988Z,3.63
2023-04-15T00:49:57.935Z,3.63
2023-04-15T00:51:59.451Z,3.52
2023-04-15T00:54:01.294Z,3.55
2023-04-15T00:56:02.987Z,3.66
2023-04-15T00:58:04.827Z,3.69
2023-04-15T01:00:08.698Z,3.64
2023-04-15T01:02:10.491Z,3.54
2023-04-15T01:04:13.149Z,3.53
2023-04-15T01:06:15.134Z,3.64
2023-04-15T01:08:16.813Z,3.76
2023-04-15T01:10:18.648Z,3.85
2023-04-15T01:12:20.659Z,3.79
2023-04-15T01:14:22.475Z,3.78
2023-04-15T01:16:24.232Z,3.72
2023-04-15T01:18:26.532Z,3.73
2023-04-15T01:20:29.703Z,3.69
2023-04-15T01:22:34.320Z,3.62
2023-04-15T01:24:37.549Z,3.77
2023-04-15T01:26:40.488Z,3.80
2023-04-15T01:28:43.421Z,3.77
2023-04-15T01:30:44.931Z,3.71
2023-04-15T01:32:46.524Z,3.67
2023-04-15T01:35:07.637Z,3.70
2023-04-15T01:37:22.766Z,3.70
2023-04-15T01:39:25.897Z,3.81
2023-04-15T01:41:31.587Z,3.92
2023-04-15T01:43:36.279Z,4.03
2023-04-15T01:45:39.056Z,3.95
2023-04-15T01:47:41.783Z,3.88
2023-04-15T01:49:46.105Z,3.89
2023-04-15T01:51:48.774Z,3.94
2023-04-15T01:53:52.506Z,3.93
2023-04-15T01:55:55.523Z,3.94
2023-04-15T01:57:58.313Z,3.90
2023-04-15T02:00:01.124Z,3.86
2023-04-15T02:02:04.654Z,4.00
2023-04-15T02:04:08.046Z,4.10
2023-04-15T02:06:11.258Z,4.18
2023-04-15T02:08:14.409Z,4.20
2023-04-15T02:10:17.294Z,4.12
2023-04-15T02:12:20.081Z,4.13
2023-04-15T02:14:22.967Z,4.21
2023-04-15T02:16:25.951Z,4.20
2023-04-15T02:18:28.803Z,4.13
2023-04-15T02:20:32.179Z,4.16
2023-04-15T02:22:35.043Z,4.18
2023-04-15T02:24:37.917Z,4.15
2023-04-15T02:26:40.736Z,4.14
2023-04-15T02:28:43.512Z,4.05
2023-04-15T02:30:47.534Z,4.06
2023-04-15T02:32:50.280Z,4.08
2023-04-15T02:34:53.556Z,4.20
2023-04-15T02:36:57.729Z,4.21
2023-04-15T02:39:01.271Z,4.30
2023-04-15T02:41:04.947Z,4.33
2023-04-15T02:43:07.750Z,4.34
2023-04-15T02:45:13.137Z,4.29
2023-04-15T02:47:16.914Z,4.36
2023-04-15T02:49:19.751Z,4.33
2023-04-15T02:51:23.170Z,4.26
2023-04-15T02:53:26.747Z,4.37
2023-04-15T02:55:29.627Z,4.40
2023-04-15T02:57:32.564Z,4.27
2023-04-15T02:59:41.013Z,4.17
2023-04-15T03:01:43.999Z,4.14
2023-04-15T03:03:47.065Z,4.20
2023-04-15T03:05:49.963Z,4.24
2023-04-15T03:07:53.863Z,4.17
2023-04-15T03:09:57.721Z,4.17
2023-04-15T03:12:01.152Z,4.24
2023-04-15T03:14:03.958Z,4.30
2023-04-15T03:16:11.039Z,4.40
2023-04-15T03:18:14.170Z,4.35
2023-04-15T03:20:17.591Z,4.27
2023-04-15T03:22:20.459Z,4.30
2023-04-15T03:24:24.800Z,4.32
2023-04-15T03:26:31.635Z,4.22
2023-04-15T03:28:39.263Z,4.24
2023-04-15T03:30:42.163Z,4.34
2023-04-15T03:32:45.219Z,4.40
2023-04-15T03:34:49.055Z,4.38
2023-04-15T03:36:52.295Z,4.36
2023-04-15T03:38:56.112Z,4.35
2023-04-15T03:40:59.354Z,4.39
2023-04-15T03:43:02.351Z,4.39
2023-04-15T03:45:05.739Z,4.36
2023-04-15T03:47:08.627Z,4.31
2023-04-15T03:49:11.377Z,4.33
2023-04-15T03:51:14.071Z,4.34
2023-04-15T03:53:16.953Z,4.33
2023-04-15T03:55:20.607Z,4.31
2023-04-15T03:57:23.570Z,4.32
2023-04-15T03:59:26.501Z,4.36
2023-04-15T04:01:29.533Z,4.38
2023-04-15T04:03:32.540Z,4.44
2023-04-15T04:05:38.835Z,4.52
2023-04-15T04:07:41.660Z,4.60
2023-04-15T04:09:45.694Z,4.58
2023-04-15T04:11:49.866Z,4.58
2023-04-15T04:13:53.163Z,4.61
2023-04-15T04:15:56.195Z,4.49
2023-04-15T04:17:59.016Z,4.40
2023-04-15T04:20:02.031Z,4.44
2023-04-15T04:22:05.021Z,4.53
2023-04-15T04:24:07.904Z,4.58
2023-04-15T04:26:10.911Z,4.61
2023-04-15T04:28:13.713Z,4.57
2023-04-15T04:30:16.911Z,4.57
2023-04-15T04:32:19.672Z,4.60
2023-04-15T04:34:22.685Z,4.65
2023-04-15T04:36:26.331Z,4.57
2023-04-15T04:38:29.166Z,4.43
2023-04-15T04:40:31.943Z,4.47
2023-04-15T04:42:35.709Z,4.57
2023-04-15T04:44:39.757Z,4.59
2023-04-15T04:46:42.517Z,4.51
2023-04-15T04:48:47.081Z,4.57
2023-04-15T04:50:50.424Z,4.50
2023-04-15T04:52:53.426Z,4.48
2023-04-15T04:54:56.426Z,4.38
2023-04-15T04:56:59.366Z,4.42
2023-04-15T04:59:02.366Z,4.50
2023-04-15T05:01:05.671Z,4.60
2023-04-15T05:03:08.755Z,4.67
2023-04-15T05:05:11.800Z,4.81
2023-04-15T05:07:14.671Z,4.82
2023-04-15T05:09:17.480Z,4.92
2023-04-15T05:11:20.280Z,4.99
2023-04-15T05:13:23.409Z,4.96
2023-04-15T05:15:26.201Z,4.92
2023-04-15T05:17:31.166Z,4.95
2023-04-15T05:19:34.174Z,5.02
2023-04-15T05:21:38.992Z,4.98
2023-04-15T05:23:42.485Z,5.05
2023-04-15T05:25:45.324Z,5.05
2023-04-15T05:27:48.099Z,5.12
2023-04-15T05:29:50.924Z,5.14
2023-04-15T05:31:53.847Z,5.21
2023-04-15T05:33:56.787Z,5.28
2023-04-15T05:35:59.655Z,5.39
2023-04-15T05:38:02.601Z,5.43
2023-04-15T05:40:06.010Z,5.48
2023-04-15T05:42:08.852Z,5.56
2023-04-15T05:44:11.713Z,5.55
2023-04-15T05:46:14.581Z,5.58
2023-04-15T05:48:17.443Z,5.62
2023-04-15T05:50:21.156Z,5.46
2023-04-15T05:52:24.064Z,5.38
2023-04-15T05:54:27.840Z,5.32
2023-04-15T05:56:31.581Z,5.30
2023-04-15T05:58:34.388Z,5.31
2023-04-15T06:00:37.221Z,5.43
2023-04-15T06:02:40.324Z,5.39
2023-04-15T06:04:43.725Z,5.51
2023-04-15T06:06:47.097Z,5.68
2023-04-15T06:08:49.894Z,5.78
2023-04-15T06:10:53.452Z,5.92
2023-04-15T06:12:56.623Z,6.15
2023-04-15T06:15:00.271Z,6.39
2023-04-15T06:17:03.325Z,6.62
2023-04-15T06:19:06.244Z,6.73
2023-04-15T06:21:09.232Z,6.76
2023-04-15T06:23:12.057Z,6.86
2023-04-15T06:25:15.119Z,6.95
2023-04-15T06:27:18.231Z,7.21
2023-04-15T06:29:21.188Z,7.19
2023-04-15T06:31:23.994Z,7.31
2023-04-15T06:33:26.920Z,7.30
2023-04-15T06:35:29.705Z,7.54
2023-04-15T06:37:32.580Z,7.56
2023-04-15T06:39:35.373Z,7.67
2023-04-15T06:41:38.256Z,7.82
2023-04-15T06:43:41.099Z,7.82
2023-04-15T06:45:44.499Z,7.94
2023-04-15T06:47:47.323Z,7.91
2023-04-15T06:49:50.249Z,7.87
2023-04-15T06:51:53.450Z,7.88
2023-04-15T06:53:57.161Z,7.77
2023-04-15T06:56:00.129Z,7.83
2023-04-15T06:58:02.969Z,7.89
2023-04-15T07:00:07.394Z,7.95
2023-04-15T07:02:13.304Z,8.12
2023-04-15T07:04:16.097Z,8.12
2023-04-15T07:06:19.792Z,8.13
2023-04-15T07:08:23.043Z,8.04
2023-04-15T07:10:26.029Z,8.04
2023-04-15T07:12:29.074Z,8.07
2023-04-15T07:14:31.990Z,7.93
2023-04-15T07:16:34.829Z,8.03
2023-04-15T07:18:37.944Z,8.15
2023-04-15T07:20:40.902Z,8.14
2023-04-15T07:22:44.050Z,8.07
2023-04-15T07:24:47.043Z,8.15
2023-04-15T07:26:49.844Z,8.50
2023-04-15T07:28:52.950Z,8.59
2023-04-15T07:30:57.150Z,8.75
2023-04-15T07:33:00.220Z,8.87
2023-04-15T07:35:03.662Z,8.91
2023-04-15T07:37:06.537Z,9.12
2023-04-15T07:39:09.337Z,9.15
2023-04-15T07:41:12.247Z,9.25
2023-04-15T07:43:15.572Z,9.22
2023-04-15T07:45:18.513Z,9.03
2023-04-15T07:47:22.046Z,8.95
2023-04-15T07:49:24.965Z,8.98
2023-04-15T07:51:29.221Z,9.07
2023-04-15T07:53:32.991Z,8.89
2023-04-15T07:55:35.893Z,8.84
2023-04-15T07:57:38.654Z,8.97
2023-04-15T07:59:41.738Z,9.10
2023-04-15T08:01:45.056Z,8.98
2023-04-15T08:03:48.577Z,9.00
2023-04-15T08:05:51.477Z,8.94
2023-04-15T08:07:54.758Z,8.99
2023-04-15T08:09:57.521Z,8.91
2023-04-15T08:12:00.925Z,8.85
2023-04-15T08:14:03.681Z,8.84
2023-04-15T08:16:25.699Z,8.98
2023-04-15T08:18:28.465Z,9.04
2023-04-15T08:20:31.213Z,8.93
2023-04-15T08:22:34.381Z,9.03
2023-04-15T08:24:37.575Z,9.02
2023-04-15T08:26:42.157Z,9.08
2023-04-15T08:28:46.248Z,8.91
2023-04-15T08:30:49.042Z,9.14
2023-04-15T08:32:52.230Z,9.26
2023-04-15T08:34:55.290Z,9.07
2023-04-15T08:36:58.199Z,9.23
2023-04-15T08:39:04.949Z,9.32
2023-04-15T08:41:16.981Z,9.39
2023-04-15T08:43:26.360Z,9.44
2023-04-15T08:45:29.570Z,9.21
2023-04-15T08:47:33.684Z,9.25
2023-04-15T08:49:40.569Z,9.26
2023-04-15T08:51:43.591Z,9.08
2023-04-15T08:53:47.512Z,9.02
2023-04-15T08:55:53.351Z,9.01
2023-04-15T08:57:56.283Z,9.09
2023-04-15T08:59:59.188Z,9.08
2023-04-15T09:02:02.632Z,9.10
2023-04-15T09:04:07.822Z,9.19
2023-04-15T09:06:11.573Z,9.22
2023-04-15T09:08:15.375Z,9.38
2023-04-15T09:10:18.500Z,9.47
2023-04-15T09:12:21.772Z,9.52
2023-04-15T09:14:24.599Z,9.59
2023-04-15T09:16:27.626Z,9.32
2023-04-15T09:18:33.368Z,9.36
2023-04-15T09:20:42.271Z,9.68
2023-04-15T09:22:46.733Z,9.47
2023-04-15T09:24:49.553Z,9.53
2023-04-15T09:26:54.666Z,9.70
2023-04-15T09:29:06.833Z,10.73
2023-04-15T09:31:10.760Z,10.29
2023-04-15T09:33:14.871Z,10.08
2023-04-15T09:35:18.800Z,9.89
2023-04-15T09:37:35.513Z,9.69
2023-04-15T09:39:49.809Z,9.94
2023-04-15T09:42:08.805Z,9.69
2023-04-15T09:44:25.104Z,9.38
2023-04-15T09:46:44.918Z,9.36
2023-04-15T09:49:07.583Z,9.26
2023-04-15T09:51:10.445Z,9.14
2023-04-15T09:53:17.081Z,9.04
2023-04-15T09:55:19.914Z,8.98
2023-04-15T09:57:23.701Z,8.92
2023-04-15T09:59:26.505Z,8.97
2023-04-15T10:01:29.692Z,8.95
2023-04-15T10:03:35.779Z,8.88
2023-04-15T10:05:39.728Z,8.92
2023-04-15T10:07:43.434Z,8.98
2023-04-15T10:09:46.985Z,9.03
2023-04-15T10:11:50.249Z,8.82
2023-04-15T10:13:55.531Z,8.56
2023-04-15T10:16:00.861Z,8.66
2023-04-15T10:18:07.160Z,8.71
2023-04-15T10:20:10.788Z,8.55
2023-04-15T10:22:14.798Z,8.62
2023-04-15T10:24:17.954Z,8.28
2023-04-15T10:26:21.399Z,8.58
2023-04-15T10:28:24.805Z,8.67
2023-04-15T10:30:27.792Z,8.43
2023-04-15T10:32:34.042Z,8.48
2023-04-15T10:34:37.910Z,8.17
2023-04-15T10:36:41.476Z,8.01
2023-04-15T10:38:45.761Z,8.01
2023-04-15T10:40:50.520Z,7.99
2023-04-15T10:42:58.114Z,8.01
2023-04-15T10:45:02.046Z,8.07
2023-04-15T10:47:18.541Z,8.01
2023-04-15T10:49:26.080Z,7.95
2023-04-15T10:51:31.316Z,7.93
2023-04-15T10:53:34.246Z,7.89
2023-04-15T10:55:37.149Z,7.85
2023-04-15T10:57:41.417Z,7.96
2023-04-15T11:00:19.305Z,8.01
2023-04-15T11:02:22.296Z,8.01
2023-04-15T11:04:59.920Z,8.20
2023-04-15T11:07:07.064Z,8.05
2023-04-15T11:09:33.738Z,8.06
2023-04-15T11:12:06.319Z,8.12
2023-04-15T11:14:16.129Z,8.17
2023-04-15T11:16:18.979Z,8.08
2023-04-15T11:18:24.510Z,7.94
2023-04-15T11:20:27.393Z,7.88
2023-04-15T11:22:30.275Z,7.81
2023-04-15T11:24:33.077Z,8.05
2023-04-15T11:26:35.918Z,7.81
2023-04-15T11:28:48.132Z,7.88
2023-04-15T11:30:50.965Z,8.07
2023-04-15T11:32:58.565Z,8.13
2023-04-15T11:35:01.423Z,8.07
2023-04-15T11:37:06.188Z,8.15
2023-04-15T11:39:08.987Z,8.29
2023-04-15T11:41:11.841Z,8.38
2023-04-15T11:43:22.953Z,8.05
2023-04-15T11:45:25.849Z,8.26
2023-04-15T11:47:28.729Z,8.26
2023-04-15T11:49:33.893Z,8.25
2023-04-15T11:51:35.568Z,8.17
2023-04-15T11:53:40.596Z,8.14
2023-04-15T11:55:47.232Z,8.18
2023-04-15T11:57:48.918Z,8.01
2023-04-15T11:59:50.435Z,7.91
2023-04-15T12:01:52.781Z,7.89
2023-04-15T12:03:54.635Z,7.81
2023-04-15T12:06:13.110Z,7.94
2023-04-15T12:08:14.659Z,7.95
2023-04-15T12:10:17.653Z,7.94
2023-04-15T12:12:19.414Z,7.84
2023-04-15T12:14:26.007Z,7.81
2023-04-15T12:16:28.568Z,7.72
2023-04-15T12:18:30.105Z,7.59
2023-04-15T12:20:31.666Z,7.59
2023-04-15T12:22:37.955Z,7.73
2023-04-15T12:24:40.326Z,7.59
2023-04-15T12:26:51.277Z,7.46
2023-04-15T12:29:10.762Z,7.63
2023-04-15T12:31:13.428Z,7.61
2023-04-15T12:33:15.252Z,7.56
2023-04-15T12:35:19.207Z,7.54
2023-04-15T12:37:21.115Z,7.53
2023-04-15T12:39:24.583Z,7.59
2023-04-15T12:41:26.148Z,7.49
2023-04-15T12:43:27.806Z,7.53
2023-04-15T12:45:30.007Z,7.32
2023-04-15T12:47:31.583Z,7.45
2023-04-15T12:49:33.408Z,7.34
2023-04-15T12:51:35.424Z,7.34
2023-04-15T12:53:37.343Z,7.34
2023-04-15T12:55:38.847Z,7.17
2023-04-15T12:57:40.402Z,7.29
2023-04-15T12:59:41.978Z,7.39
2023-04-15T13:01:43.589Z,7.49
2023-04-15T13:03:45.546Z,7.49
2023-04-15T13:05:47.179Z,7.55
2023-04-15T13:07:48.822Z,7.69
2023-04-15T13:09:50.569Z,7.54
2023-04-15T13:11:52.976Z,7.56
2023-04-15T13:13:54.945Z,7.52
2023-04-15T13:15:57.038Z,7.57
2023-04-15T13:17:58.733Z,7.48
2023-04-15T13:20:00.368Z,7.58
2023-04-15T13:22:02.047Z,7.45
2023-04-15T13:24:04.745Z,7.43
2023-04-15T13:26:06.578Z,7.45
2023-04-15T13:28:08.216Z,7.41
2023-04-15T13:30:10.018Z,7.40
2023-04-15T13:32:11.681Z,7.46
2023-04-15T13:34:13.391Z,7.32
2023-04-15T13:36:15.033Z,7.22
2023-04-15T13:38:16.629Z,7.16
2023-04-15T13:40:20.189Z,7.18
2023-04-15T13:42:23.060Z,7.32
2023-04-15T13:44:24.572Z,7.45
2023-04-15T13:46:26.267Z,7.62
2023-04-15T13:48:28.702Z,7.66
2023-04-15T13:50:30.316Z,7.43
2023-04-15T13:52:31.805Z,7.32
2023-04-15T13:54:37.848Z,7.34
2023-04-15T13:56:39.719Z,7.42
2023-04-15T13:58:41.684Z,7.54
2023-04-15T14:00:43.293Z,7.48
2023-04-15T14:02:44.951Z,7.50
2023-04-15T14:04:46.491Z,7.46
2023-04-15T14:06:48.118Z,7.37
2023-04-15T14:08:49.691Z,7.43
2023-04-15T14:10:51.320Z,7.39
2023-04-15T14:12:53.616Z,7.54
2023-04-15T14:14:55.365Z,7.48
2023-04-15T14:16:57.450Z,7.22
2023-04-15T14:18:59.541Z,7.22
2023-04-15T14:21:01.349Z,7.20
2023-04-15T14:23:02.997Z,7.44
2023-04-15T14:25:06.337Z,7.45
2023-04-15T14:27:08.762Z,7.32
2023-04-15T14:29:11.134Z,7.26
2023-04-15T14:31:12.679Z,7.24
2023-04-15T14:33:14.366Z,7.22
2023-04-15T14:35:16.234Z,7.23
2023-04-15T14:37:18.016Z,7.40
2023-04-15T14:39:20.401Z,7.50
2023-04-15T14:41:22.584Z,7.39
2023-04-15T14:43:24.166Z,7.40
2023-04-15T14:45:25.665Z,7.47
2023-04-15T14:47:27.246Z,7.45
2023-04-15T14:49:29.068Z,7.39
2023-04-15T14:51:31.743Z,7.32
2023-04-15T14:53:33.170Z,7.32
2023-04-15T14:55:34.717Z,7.40
2023-04-15T14:57:37.773Z,7.26
2023-04-15T14:59:39.461Z,7.33
2023-04-15T15:01:41.182Z,7.44
2023-04-15T15:03:43.007Z,7.42
2023-04-15T15:05:46.840Z,7.40
2023-04-15T15:07:48.733Z,7.44
2023-04-15T15:09:50.445Z,7.50
2023-04-15T15:11:52.299Z,7.55
2023-04-15T15:13:56.488Z,7.75
2023-04-15T15:15:58.131Z,7.57
2023-04-15T15:18:00.347Z,7.55
2023-04-15T15:20:03.499Z,7.79
2023-04-15T15:22:05.572Z,7.63
2023-04-15T15:24:07.123Z,7.52
2023-04-15T15:26:08.841Z,7.65
2023-04-15T15:28:11.160Z,7.65
2023-04-15T15:30:13.411Z,7.58
2023-04-15T15:32:15.249Z,7.60
2023-04-15T15:34:17.395Z,7.65
2023-04-15T15:36:19.083Z,7.58
2023-04-15T15:38:20.699Z,7.63
2023-04-15T15:40:22.450Z,7.79
2023-04-15T15:42:24.021Z,7.66
2023-04-15T15:44:25.518Z,7.41
2023-04-15T15:46:31.229Z,7.54
2023-04-15T15:48:33.129Z,7.54
2023-04-15T15:50:34.903Z,7.62
2023-04-15T15:52:36.547Z,7.48
2023-04-15T15:54:39.137Z,7.45
2023-04-15T15:56:42.061Z,7.44
2023-04-15T15:58:44.904Z,7.49
2023-04-15T16:00:46.975Z,7.41
2023-04-15T16:03:05.972Z,7.33
2023-04-15T16:05:08.690Z,7.38
2023-04-15T16:07:11.683Z,7.44
2023-04-15T16:09:13.700Z,7.25
2023-04-15T16:11:15.267Z,7.18
2023-04-15T16:13:16.820Z,7.18
2023-04-15T16:15:18.512Z,7.07
2023-04-15T16:17:20.387Z,7.08
2023-04-15T16:19:22.134Z,7.14
2023-04-15T16:21:25.866Z,7.14
2023-04-15T16:23:27.514Z,7.33
2023-04-15T16:25:29.192Z,7.74
2023-04-15T16:27:30.769Z,7.97
2023-04-15T16:29:32.526Z,7.81
2023-04-15T16:31:35.496Z,7.65
2023-04-15T16:33:38.003Z,7.58
2023-04-15T16:35:39.498Z,7.38
2023-04-15T16:37:40.998Z,7.37
2023-04-15T16:39:42.689Z,7.52
2023-04-15T16:41:44.216Z,7.34
2023-04-15T16:43:45.992Z,7.66
2023-04-15T16:45:50.897Z,7.56
2023-04-15T16:47:54.242Z,7.45
2023-04-15T16:49:56.078Z,7.29
2023-04-15T16:51:57.997Z,7.40
2023-04-15T16:53:59.539Z,7.23
2023-04-15T16:56:01.272Z,7.22
2023-04-15T16:58:03.937Z,7.23
2023-04-15T17:00:08.532Z,7.18
2023-04-15T17:02:12.466Z,7.27
2023-04-15T17:04:14.308Z,7.26
2023-04-15T17:06:16.222Z,7.52
2023-04-15T17:08:17.736Z,7.52
2023-04-15T17:10:19.387Z,7.50
2023-04-15T17:12:21.162Z,7.54
2023-04-15T17:14:22.903Z,7.53
2023-04-15T17:16:25.267Z,7.48
2023-04-15T17:18:28.025Z,7.56
2023-04-15T17:20:41.322Z,7.65
2023-04-15T17:22:43.172Z,7.62
2023-04-15T17:24:45.044Z,7.62
2023-04-15T17:26:49.399Z,7.49
2023-04-15T17:28:51.788Z,7.24
2023-04-15T17:30:59.830Z,7.30
2023-04-15T17:33:52.956Z,7.25
2023-04-15T17:36:03.092Z,7.24
2023-04-15T17:38:24.638Z,7.15
2023-04-15T17:40:46.246Z,7.11
2023-04-15T17:43:07.695Z,7.21
2023-04-15T17:45:30.120Z,7.35
2023-04-15T17:47:51.747Z,7.33
2023-04-15T17:50:13.455Z,7.29
2023-04-15T17:52:35.127Z,7.24
2023-04-15T17:54:56.708Z,7.14
2023-04-15T17:57:18.259Z,7.19
2023-04-15T17:59:43.766Z,7.32
2023-04-15T18:02:05.425Z,7.21
2023-04-15T18:04:27.382Z,7.37
2023-04-15T18:06:48.963Z,7.33
2023-04-15T18:09:10.544Z,7.24
2023-04-15T18:11:33.170Z,7.28
2023-04-15T18:13:54.629Z,7.30
2023-04-15T18:16:16.230Z,7.32
2023-04-15T18:18:37.720Z,7.31
2023-04-15T18:20:39.521Z,7.32
2023-04-15T18:22:42.856Z,7.35
2023-04-15T18:24:44.494Z,7.28
2023-04-15T18:26:48.775Z,7.40
2023-04-15T18:28:51.033Z,7.65
2023-04-15T18:30:53.580Z,7.75
2023-04-15T18:32:55.330Z,7.53
2023-04-15T18:34:56.910Z,7.69
2023-04-15T18:36:58.834Z,7.70
2023-04-15T18:39:00.334Z,7.71
2023-04-15T18:41:02.094Z,7.61
2023-04-15T18:43:03.663Z,7.62
2023-04-15T18:45:05.863Z,7.71
2023-04-15T18:47:07.655Z,7.75
2023-04-15T18:49:10.898Z,7.75
2023-04-15T18:51:12.451Z,7.53
2023-04-15T18:53:14.173Z,7.50
2023-04-15T18:55:18.478Z,7.58
2023-04-15T18:57:23.546Z,7.69
2023-04-15T18:59:33.563Z,7.59
2023-04-15T19:01:35.412Z,7.60
2023-04-15T19:03:37.223Z,7.70
2023-04-15T19:05:39.854Z,7.66
2023-04-15T19:07:41.388Z,7.60
2023-04-15T19:09:43.029Z,7.62
2023-04-15T19:11:44.822Z,7.76
2023-04-15T19:13:46.324Z,7.83
2023-04-15T19:15:48.322Z,7.77
2023-04-15T19:17:49.985Z,7.72
2023-04-15T19:19:51.731Z,7.85
2023-04-15T19:21:54.113Z,7.71
2023-04-15T19:23:57.226Z,7.61
2023-04-15T19:25:58.858Z,7.45
2023-04-15T19:28:00.569Z,7.52
2023-04-15T19:30:03.347Z,7.75
2023-04-15T19:32:05.695Z,7.68
2023-04-15T19:34:07.431Z,7.75
2023-04-15T19:36:08.984Z,7.56
2023-04-15T19:38:10.616Z,7.47
2023-04-15T19:40:12.302Z,7.36
2023-04-15T19:42:13.878Z,7.48
2023-04-15T19:44:15.724Z,7.52
2023-04-15T19:46:17.429Z,7.60
2023-04-15T19:48:19.255Z,7.65
2023-04-15T19:50:24.590Z,7.56
2023-04-15T19:52:26.367Z,7.46
2023-04-15T19:54:28.088Z,7.53
2023-04-15T19:56:31.186Z,7.53
2023-04-15T19:58:33.938Z,7.56
2023-04-15T20:00:36.594Z,7.73
2023-04-15T20:02:38.413Z,7.62
2023-04-15T20:04:40.136Z,7.62
2023-04-15T20:06:41.876Z,7.50
2023-04-15T20:08:43.421Z,7.63
2023-04-15T20:10:44.937Z,7.65
2023-04-15T20:12:51.355Z,7.63
2023-04-15T20:14:54.202Z,7.69
2023-04-15T20:16:56.084Z,7.73
2023-04-15T20:19:02.153Z,7.72
2023-04-15T20:21:03.994Z,7.65
2023-04-15T20:23:05.626Z,7.74
2023-04-15T20:25:07.658Z,7.57
2023-04-15T20:27:09.223Z,7.57
2023-04-15T20:29:10.855Z,7.58
2023-04-15T20:31:12.445Z,7.55
2023-04-15T20:33:14.316Z,7.51
2023-04-15T20:35:16.044Z,7.42
2023-04-15T20:37:17.837Z,7.48
2023-04-15T20:39:19.692Z,7.59
2023-04-15T20:41:22.034Z,7.47
2023-04-15T20:43:24.160Z,7.53
2023-04-15T20:45:26.109Z,7.56
2023-04-15T20:47:27.865Z,7.68
2023-04-15T20:49:33.700Z,7.54
2023-04-15T20:51:37.761Z,7.49
2023-04-15T20:53:40.546Z,7.53
2023-04-15T20:55:43.553Z,7.54
2023-04-15T20:57:45.374Z,7.69
2023-04-15T20:59:47.033Z,7.59
2023-04-15T21:01:48.650Z,7.68
2023-04-15T21:03:50.342Z,7.48
2023-04-15T21:05:52.316Z,7.47
2023-04-15T21:07:54.356Z,7.51
2023-04-15T21:09:56.110Z,7.48
2023-04-15T21:12:01.620Z,7.32
2023-04-15T21:14:07.164Z,7.41
2023-04-15T21:16:08.739Z,7.43
2023-04-15T21:18:10.436Z,7.35
2023-04-15T21:20:12.262Z,7.26
2023-04-15T21:22:14.015Z,7.31
2023-04-15T21:24:15.748Z,7.23
2023-04-15T21:26:18.198Z,7.24
2023-04-15T21:28:19.755Z,7.29
2023-04-15T21:30:21.249Z,7.34
2023-04-15T21:32:23.117Z,7.29
2023-04-15T21:34:24.824Z,7.33
2023-04-15T21:36:26.860Z,7.32
2023-04-15T21:38:28.429Z,7.47
2023-04-15T21:40:30.101Z,7.41
2023-04-15T21:42:31.757Z,7.33
2023-04-15T21:44:33.296Z,7.41
2023-04-15T21:46:35.628Z,7.24
2023-04-15T21:48:37.778Z,7.21
2023-04-15T21:50:39.470Z,7.15
2023-04-15T21:52:41.189Z,7.28
2023-04-15T21:54:43.159Z,7.38
2023-04-15T21:56:44.723Z,7.32
2023-04-15T21:58:46.291Z,7.31
2023-04-15T22:00:48.025Z,7.28
2023-04-15T22:02:50.145Z,7.32
2023-04-15T22:04:52.207Z,7.31
2023-04-15T22:06:55.678Z,7.33
2023-04-15T22:08:57.926Z,7.34
2023-04-15T22:10:59.679Z,7.30
2023-04-15T22:13:02.957Z,7.50
2023-04-15T22:15:04.941Z,7.49
2023-04-15T22:17:06.576Z,7.59
2023-04-15T22:19:08.430Z,7.50
2023-04-15T22:21:10.344Z,7.36
2023-04-15T22:23:11.944Z,7.43
2023-04-15T22:25:14.332Z,7.38
2023-04-15T22:27:15.949Z,7.42
2023-04-15T22:29:17.507Z,7.35
2023-04-15T22:31:19.279Z,7.35
2023-04-15T22:33:20.957Z,7.46
2023-04-15T22:35:22.560Z,7.37
2023-04-15T22:37:24.188Z,7.44
2023-04-15T22:39:26.089Z,7.31
2023-04-15T22:41:27.586Z,7.42
2023-04-15T22:43:29.086Z,7.48
2023-04-15T22:45:30.796Z,7.62
2023-04-15T22:47:32.530Z,7.36
2023-04-15T22:49:35.087Z,7.54
2023-04-15T22:51:37.949Z,7.59
2023-04-15T22:53:39.476Z,7.71
2023-04-15T22:55:45.636Z,7.73
2023-04-15T22:57:47.245Z,7.56
2023-04-15T22:59:48.867Z,7.67
2023-04-15T23:01:50.781Z,7.50
2023-04-15T23:03:55.616Z,7.53
2023-04-15T23:06:00.163Z,7.52
2023-04-15T23:08:01.687Z,7.49
2023-04-15T23:10:03.401Z,7.52
2023-04-15T23:12:05.120Z,7.51
2023-04-15T23:14:06.617Z,7.43
2023-04-15T23:16:08.342Z,7.49
2023-04-15T23:18:10.159Z,7.51
2023-04-15T23:20:12.538Z,7.65
2023-04-15T23:22:14.096Z,7.64
2023-04-15T23:24:16.085Z,7.53
2023-04-15T23:26:17.577Z,7.42
2023-04-15T23:28:19.245Z,7.47
2023-04-15T23:30:20.854Z,7.35
2023-04-15T23:32:22.669Z,7.35
2023-04-15T23:34:24.354Z,7.59
2023-04-15T23:36:27.166Z,7.57
2023-04-15T23:38:28.855Z,7.52
2023-04-15T23:40:30.776Z,7.41
2023-04-15T23:42:32.390Z,7.42
2023-04-15T23:44:33.972Z,7.31
2023-04-15T23:46:35.806Z,7.33
2023-04-15T23:48:38.255Z,7.25
2023-04-15T23:50:39.767Z,7.25
2023-04-15T23:52:41.327Z,7.19
2023-04-15T23:54:42.971Z,7.35
2023-04-15T23:56:44.537Z,7.44
2023-04-15T23:58:46.159Z,7.38
